sensor_id;sensor_type;location;lat;lon;timestamp;P1;durP1;ratioP1;P2;durP2;ratioP2
50205;SDS011;36098;48.390;10.856;2022-10-17T00:00:53;1.90;;;1.45;;
50205;SDS011;36098;48.390;10.856;2022-10-17T00:03:18;2.78;;;1.80;;
50205;SDS011;36098;48.390;10.856;2022-10-17T00:05:45;3.08;;;1.88;;
50205;SDS011;36098;48.390;10.856;2022-10-17T00:08:11;3.15;;;2.05;;
50205;SDS011;36098;48.390;10.856;2022-10-17T00:10:38;2.15;;;1.48;;
50205;SDS011;36098;48.390;10.856;2022-10-17T00:13:04;1.90;;;1.50;;
50205;SDS011;36098;48.390;10.856;2022-10-17T00:15:30;2.60;;;1.60;;
50205;SDS011;36098;48.390;10.856;2022-10-17T00:17:56;2.47;;;1.65;;
50205;SDS011;36098;48.390;10.856;2022-10-17T00:20:22;2.50;;;1.65;;
50205;SDS011;36098;48.390;10.856;2022-10-17T00:22:47;2.10;;;1.60;;
50205;SDS011;36098;48.390;10.856;2022-10-17T00:25:13;2.20;;;1.80;;
50205;SDS011;36098;48.390;10.856;2022-10-17T00:27:39;2.70;;;1.70;;
50205;SDS011;36098;48.390;10.856;2022-10-17T00:30:06;2.08;;;1.70;;
50205;SDS011;36098;48.390;10.856;2022-10-17T00:32:34;2.20;;;1.73;;
50205;SDS011;36098;48.390;10.856;2022-10-17T00:34:59;1.90;;;1.67;;
50205;SDS011;36098;48.390;10.856;2022-10-17T00:37:24;4.40;;;1.70;;
50205;SDS011;36098;48.390;10.856;2022-10-17T00:39:50;2.78;;;1.70;;
50205;SDS011;36098;48.390;10.856;2022-10-17T00:42:15;2.55;;;1.55;;
50205;SDS011;36098;48.390;10.856;2022-10-17T00:47:07;2.88;;;1.60;;
50205;SDS011;36098;48.390;10.856;2022-10-17T00:49:36;2.60;;;1.67;;
50205;SDS011;36098;48.390;10.856;2022-10-17T00:52:07;2.28;;;1.42;;
50205;SDS011;36098;48.390;10.856;2022-10-17T00:54:37;1.83;;;1.50;;
50205;SDS011;36098;48.390;10.856;2022-10-17T00:57:07;2.25;;;1.58;;
50205;SDS011;36098;48.390;10.856;2022-10-17T00:59:32;2.63;;;1.60;;
50205;SDS011;36098;48.390;10.856;2022-10-17T01:02:01;1.73;;;1.33;;
50205;SDS011;36098;48.390;10.856;2022-10-17T01:04:29;1.92;;;1.30;;
50205;SDS011;36098;48.390;10.856;2022-10-17T01:06:54;3.17;;;1.73;;
50205;SDS011;36098;48.390;10.856;2022-10-17T01:09:20;2.25;;;1.40;;
50205;SDS011;36098;48.390;10.856;2022-10-17T01:11:49;2.15;;;1.50;;
50205;SDS011;36098;48.390;10.856;2022-10-17T01:16:51;2.42;;;1.38;;
50205;SDS011;36098;48.390;10.856;2022-10-17T01:22:31;2.45;;;1.50;;
50205;SDS011;36098;48.390;10.856;2022-10-17T01:25:05;2.70;;;1.70;;
50205;SDS011;36098;48.390;10.856;2022-10-17T01:32:54;3.17;;;1.75;;
50205;SDS011;36098;48.390;10.856;2022-10-17T01:35:28;2.10;;;1.50;;
50205;SDS011;36098;48.390;10.856;2022-10-17T01:38:07;2.22;;;1.45;;
50205;SDS011;36098;48.390;10.856;2022-10-17T01:40:44;2.08;;;1.60;;
50205;SDS011;36098;48.390;10.856;2022-10-17T01:45:58;2.03;;;1.50;;
50205;SDS011;36098;48.390;10.856;2022-10-17T01:48:32;2.72;;;1.50;;
50205;SDS011;36098;48.390;10.856;2022-10-17T01:51:05;2.40;;;1.60;;
50205;SDS011;36098;48.390;10.856;2022-10-17T01:53:35;2.28;;;1.58;;
50205;SDS011;36098;48.390;10.856;2022-10-17T01:56:07;1.52;;;1.30;;
50205;SDS011;36098;48.390;10.856;2022-10-17T01:58:36;2.13;;;1.30;;
50205;SDS011;36098;48.390;10.856;2022-10-17T02:01:05;1.65;;;1.40;;
50205;SDS011;36098;48.390;10.856;2022-10-17T02:03:33;1.83;;;1.30;;
50205;SDS011;36098;48.390;10.856;2022-10-17T02:06:00;1.75;;;1.50;;
50205;SDS011;36098;48.390;10.856;2022-10-17T02:08:26;1.30;;;1.10;;
50205;SDS011;36098;48.390;10.856;2022-10-17T02:10:57;2.58;;;1.67;;
50205;SDS011;36098;48.390;10.856;2022-10-17T02:21:32;2.83;;;1.60;;
50205;SDS011;36098;48.390;10.856;2022-10-17T02:26:47;1.83;;;1.30;;
50205;SDS011;36098;48.390;10.856;2022-10-17T02:29:21;1.85;;;1.45;;
50205;SDS011;36098;48.390;10.856;2022-10-17T02:32:09;3.60;;;1.42;;
50205;SDS011;36098;48.390;10.856;2022-10-17T02:34:45;2.10;;;1.50;;
50205;SDS011;36098;48.390;10.856;2022-10-17T02:37:13;2.97;;;1.40;;
50205;SDS011;36098;48.390;10.856;2022-10-17T02:39:42;1.67;;;1.30;;
50205;SDS011;36098;48.390;10.856;2022-10-17T02:42:09;1.85;;;1.40;;
50205;SDS011;36098;48.390;10.856;2022-10-17T02:44:38;2.20;;;1.52;;
50205;SDS011;36098;48.390;10.856;2022-10-17T02:47:11;3.00;;;1.52;;
50205;SDS011;36098;48.390;10.856;2022-10-17T02:49:43;1.83;;;1.40;;
50205;SDS011;36098;48.390;10.856;2022-10-17T02:55:02;1.90;;;1.40;;
50205;SDS011;36098;48.390;10.856;2022-10-17T02:57:43;2.20;;;1.38;;
50205;SDS011;36098;48.390;10.856;2022-10-17T03:00:13;1.75;;;1.30;;
50205;SDS011;36098;48.390;10.856;2022-10-17T03:02:58;2.25;;;1.42;;
50205;SDS011;36098;48.390;10.856;2022-10-17T03:05:25;2.92;;;1.40;;
50205;SDS011;36098;48.390;10.856;2022-10-17T03:07:53;1.65;;;1.40;;
50205;SDS011;36098;48.390;10.856;2022-10-17T03:10:19;2.25;;;1.42;;
50205;SDS011;36098;48.390;10.856;2022-10-17T03:12:45;1.70;;;1.17;;
50205;SDS011;36098;48.390;10.856;2022-10-17T03:15:10;1.90;;;1.40;;
50205;SDS011;36098;48.390;10.856;2022-10-17T03:17:36;1.42;;;1.25;;
50205;SDS011;36098;48.390;10.856;2022-10-17T03:20:02;2.03;;;1.20;;
50205;SDS011;36098;48.390;10.856;2022-10-17T03:22:29;1.83;;;1.40;;
50205;SDS011;36098;48.390;10.856;2022-10-17T03:24:54;2.15;;;1.50;;
50205;SDS011;36098;48.390;10.856;2022-10-17T03:27:19;2.67;;;1.50;;
50205;SDS011;36098;48.390;10.856;2022-10-17T03:29:45;2.00;;;1.38;;
50205;SDS011;36098;48.390;10.856;2022-10-17T03:32:10;1.65;;;1.33;;
50205;SDS011;36098;48.390;10.856;2022-10-17T03:34:35;2.55;;;1.30;;
50205;SDS011;36098;48.390;10.856;2022-10-17T03:37:00;2.13;;;1.38;;
50205;SDS011;36098;48.390;10.856;2022-10-17T03:39:26;1.88;;;1.40;;
50205;SDS011;36098;48.390;10.856;2022-10-17T03:41:51;2.13;;;1.50;;
50205;SDS011;36098;48.390;10.856;2022-10-17T03:44:16;2.17;;;1.50;;
50205;SDS011;36098;48.390;10.856;2022-10-17T03:46:42;2.60;;;1.45;;
50205;SDS011;36098;48.390;10.856;2022-10-17T03:49:08;1.85;;;1.20;;
50205;SDS011;36098;48.390;10.856;2022-10-17T03:51:34;1.50;;;1.20;;
50205;SDS011;36098;48.390;10.856;2022-10-17T03:54:00;1.85;;;1.30;;
50205;SDS011;36098;48.390;10.856;2022-10-17T03:56:26;1.40;;;1.08;;
50205;SDS011;36098;48.390;10.856;2022-10-17T03:58:51;1.77;;;1.38;;
50205;SDS011;36098;48.390;10.856;2022-10-17T04:01:18;1.85;;;1.40;;
50205;SDS011;36098;48.390;10.856;2022-10-17T04:03:47;1.90;;;1.35;;
50205;SDS011;36098;48.390;10.856;2022-10-17T04:06:13;1.92;;;1.30;;
50205;SDS011;36098;48.390;10.856;2022-10-17T04:08:38;1.60;;;1.30;;
50205;SDS011;36098;48.390;10.856;2022-10-17T04:11:05;1.60;;;1.20;;
50205;SDS011;36098;48.390;10.856;2022-10-17T04:13:31;2.72;;;1.27;;
50205;SDS011;36098;48.390;10.856;2022-10-17T04:16:01;2.25;;;1.30;;
50205;SDS011;36098;48.390;10.856;2022-10-17T04:18:31;1.40;;;1.20;;
50205;SDS011;36098;48.390;10.856;2022-10-17T04:20:57;3.35;;;1.30;;
50205;SDS011;36098;48.390;10.856;2022-10-17T04:23:22;1.88;;;1.30;;
50205;SDS011;36098;48.390;10.856;2022-10-17T04:25:47;1.80;;;1.40;;
50205;SDS011;36098;48.390;10.856;2022-10-17T04:28:13;4.40;;;1.23;;
50205;SDS011;36098;48.390;10.856;2022-10-17T04:30:38;2.05;;;1.20;;
50205;SDS011;36098;48.390;10.856;2022-10-17T04:33:04;1.92;;;1.38;;
50205;SDS011;36098;48.390;10.856;2022-10-17T04:35:29;1.30;;;1.00;;
50205;SDS011;36098;48.390;10.856;2022-10-17T04:37:55;1.65;;;1.30;;
50205;SDS011;36098;48.390;10.856;2022-10-17T04:40:20;1.50;;;1.13;;
50205;SDS011;36098;48.390;10.856;2022-10-17T04:42:45;1.85;;;1.33;;
50205;SDS011;36098;48.390;10.856;2022-10-17T04:45:11;1.48;;;1.17;;
50205;SDS011;36098;48.390;10.856;2022-10-17T04:47:36;1.70;;;1.20;;
50205;SDS011;36098;48.390;10.856;2022-10-17T04:50:02;1.98;;;1.30;;
50205;SDS011;36098;48.390;10.856;2022-10-17T04:52:28;2.60;;;1.50;;
50205;SDS011;36098;48.390;10.856;2022-10-17T04:54:54;1.90;;;1.20;;
50205;SDS011;36098;48.390;10.856;2022-10-17T04:57:19;2.70;;;1.42;;
50205;SDS011;36098;48.390;10.856;2022-10-17T04:59:44;4.80;;;1.30;;
50205;SDS011;36098;48.390;10.856;2022-10-17T05:02:10;10.15;;;1.92;;
50205;SDS011;36098;48.390;10.856;2022-10-17T05:04:35;3.50;;;1.88;;
50205;SDS011;36098;48.390;10.856;2022-10-17T05:07:01;6.50;;;1.85;;
50205;SDS011;36098;48.390;10.856;2022-10-17T05:09:26;5.55;;;2.05;;
50205;SDS011;36098;48.390;10.856;2022-10-17T05:11:52;5.90;;;2.00;;
50205;SDS011;36098;48.390;10.856;2022-10-17T05:14:17;6.80;;;1.95;;
50205;SDS011;36098;48.390;10.856;2022-10-17T05:16:42;4.55;;;1.80;;
50205;SDS011;36098;48.390;10.856;2022-10-17T05:19:08;6.88;;;2.03;;
50205;SDS011;36098;48.390;10.856;2022-10-17T05:21:33;4.25;;;1.77;;
50205;SDS011;36098;48.390;10.856;2022-10-17T05:24:01;12.05;;;2.17;;
50205;SDS011;36098;48.390;10.856;2022-10-17T05:26:28;7.60;;;1.92;;
50205;SDS011;36098;48.390;10.856;2022-10-17T05:28:53;4.95;;;1.83;;
50205;SDS011;36098;48.390;10.856;2022-10-17T05:31:19;7.72;;;2.25;;
50205;SDS011;36098;48.390;10.856;2022-10-17T05:33:44;4.88;;;1.65;;
50205;SDS011;36098;48.390;10.856;2022-10-17T05:36:09;7.22;;;2.10;;
50205;SDS011;36098;48.390;10.856;2022-10-17T05:38:35;6.45;;;2.47;;
50205;SDS011;36098;48.390;10.856;2022-10-17T05:41:01;5.95;;;2.03;;
50205;SDS011;36098;48.390;10.856;2022-10-17T05:43:28;3.90;;;1.80;;
50205;SDS011;36098;48.390;10.856;2022-10-17T05:45:53;5.13;;;1.77;;
50205;SDS011;36098;48.390;10.856;2022-10-17T05:48:19;5.53;;;2.00;;
50205;SDS011;36098;48.390;10.856;2022-10-17T05:50:45;4.05;;;1.70;;
50205;SDS011;36098;48.390;10.856;2022-10-17T05:53:11;5.90;;;1.90;;
50205;SDS011;36098;48.390;10.856;2022-10-17T05:55:36;4.35;;;2.00;;
50205;SDS011;36098;48.390;10.856;2022-10-17T05:58:02;6.53;;;2.58;;
50205;SDS011;36098;48.390;10.856;2022-10-17T06:00:28;5.88;;;2.00;;
50205;SDS011;36098;48.390;10.856;2022-10-17T06:02:53;9.00;;;2.22;;
50205;SDS011;36098;48.390;10.856;2022-10-17T06:05:19;7.82;;;2.00;;
50205;SDS011;36098;48.390;10.856;2022-10-17T06:07:45;4.95;;;2.50;;
50205;SDS011;36098;48.390;10.856;2022-10-17T06:10:10;6.72;;;1.92;;
50205;SDS011;36098;48.390;10.856;2022-10-17T06:12:38;4.50;;;2.00;;
50205;SDS011;36098;48.390;10.856;2022-10-17T06:15:04;6.90;;;1.90;;
50205;SDS011;36098;48.390;10.856;2022-10-17T06:17:30;3.38;;;2.05;;
50205;SDS011;36098;48.390;10.856;2022-10-17T06:19:55;4.07;;;1.60;;
50205;SDS011;36098;48.390;10.856;2022-10-17T06:22:21;5.20;;;1.95;;
50205;SDS011;36098;48.390;10.856;2022-10-17T06:24:47;4.25;;;2.10;;
50205;SDS011;36098;48.390;10.856;2022-10-17T06:27:12;3.47;;;1.88;;
50205;SDS011;36098;48.390;10.856;2022-10-17T06:29:37;3.78;;;1.70;;
50205;SDS011;36098;48.390;10.856;2022-10-17T06:32:03;4.93;;;1.80;;
50205;SDS011;36098;48.390;10.856;2022-10-17T06:34:28;3.75;;;1.98;;
50205;SDS011;36098;48.390;10.856;2022-10-17T06:36:54;6.70;;;1.95;;
50205;SDS011;36098;48.390;10.856;2022-10-17T06:39:19;6.68;;;1.98;;
50205;SDS011;36098;48.390;10.856;2022-10-17T06:41:44;3.38;;;2.00;;
50205;SDS011;36098;48.390;10.856;2022-10-17T06:44:10;5.78;;;1.88;;
50205;SDS011;36098;48.390;10.856;2022-10-17T06:46:36;5.97;;;2.05;;
50205;SDS011;36098;48.390;10.856;2022-10-17T06:49:02;7.47;;;2.20;;
50205;SDS011;36098;48.390;10.856;2022-10-17T06:51:29;4.20;;;1.70;;
50205;SDS011;36098;48.390;10.856;2022-10-17T06:53:56;3.75;;;1.70;;
50205;SDS011;36098;48.390;10.856;2022-10-17T06:56:22;6.75;;;1.83;;
50205;SDS011;36098;48.390;10.856;2022-10-17T06:58:48;3.20;;;1.60;;
50205;SDS011;36098;48.390;10.856;2022-10-17T07:01:15;3.15;;;1.67;;
50205;SDS011;36098;48.390;10.856;2022-10-17T07:03:40;5.35;;;1.70;;
50205;SDS011;36098;48.390;10.856;2022-10-17T07:06:07;6.07;;;1.90;;
50205;SDS011;36098;48.390;10.856;2022-10-17T07:08:35;4.57;;;1.83;;
50205;SDS011;36098;48.390;10.856;2022-10-17T07:11:15;4.95;;;1.67;;
50205;SDS011;36098;48.390;10.856;2022-10-17T07:13:42;3.33;;;1.65;;
50205;SDS011;36098;48.390;10.856;2022-10-17T07:16:08;3.30;;;1.67;;
50205;SDS011;36098;48.390;10.856;2022-10-17T07:18:34;4.00;;;1.63;;
50205;SDS011;36098;48.390;10.856;2022-10-17T07:21:00;4.18;;;1.70;;
50205;SDS011;36098;48.390;10.856;2022-10-17T07:23:26;2.92;;;1.40;;
50205;SDS011;36098;48.390;10.856;2022-10-17T07:25:51;5.10;;;1.80;;
50205;SDS011;36098;48.390;10.856;2022-10-17T07:28:16;5.20;;;1.70;;
50205;SDS011;36098;48.390;10.856;2022-10-17T07:30:42;2.83;;;1.60;;
50205;SDS011;36098;48.390;10.856;2022-10-17T07:33:08;3.35;;;2.00;;
50205;SDS011;36098;48.390;10.856;2022-10-17T07:35:33;2.80;;;1.52;;
50205;SDS011;36098;48.390;10.856;2022-10-17T07:37:59;5.30;;;1.70;;
50205;SDS011;36098;48.390;10.856;2022-10-17T07:40:24;3.35;;;1.70;;
50205;SDS011;36098;48.390;10.856;2022-10-17T07:42:49;3.22;;;1.90;;
50205;SDS011;36098;48.390;10.856;2022-10-17T07:45:15;4.57;;;1.85;;
50205;SDS011;36098;48.390;10.856;2022-10-17T07:47:40;1.98;;;1.45;;
50205;SDS011;36098;48.390;10.856;2022-10-17T07:50:06;4.22;;;1.90;;
50205;SDS011;36098;48.390;10.856;2022-10-17T07:52:31;3.55;;;1.60;;
50205;SDS011;36098;48.390;10.856;2022-10-17T07:54:57;3.47;;;1.50;;
50205;SDS011;36098;48.390;10.856;2022-10-17T07:57:22;3.17;;;1.65;;
50205;SDS011;36098;48.390;10.856;2022-10-17T07:59:48;3.15;;;1.50;;
50205;SDS011;36098;48.390;10.856;2022-10-17T08:02:33;2.97;;;1.42;;
50205;SDS011;36098;48.390;10.856;2022-10-17T08:04:58;3.83;;;1.40;;
50205;SDS011;36098;48.390;10.856;2022-10-17T08:07:23;4.03;;;1.60;;
50205;SDS011;36098;48.390;10.856;2022-10-17T08:09:49;4.07;;;1.50;;
50205;SDS011;36098;48.390;10.856;2022-10-17T08:12:14;3.72;;;1.50;;
50205;SDS011;36098;48.390;10.856;2022-10-17T08:14:40;3.25;;;1.40;;
50205;SDS011;36098;48.390;10.856;2022-10-17T08:17:06;2.70;;;1.45;;
50205;SDS011;36098;48.390;10.856;2022-10-17T08:19:31;5.05;;;1.80;;
50205;SDS011;36098;48.390;10.856;2022-10-17T08:21:57;3.25;;;1.83;;
50205;SDS011;36098;48.390;10.856;2022-10-17T08:24:23;2.70;;;1.40;;
50205;SDS011;36098;48.390;10.856;2022-10-17T08:26:48;2.42;;;1.40;;
50205;SDS011;36098;48.390;10.856;2022-10-17T08:29:14;3.17;;;1.60;;
50205;SDS011;36098;48.390;10.856;2022-10-17T08:31:40;2.17;;;1.55;;
50205;SDS011;36098;48.390;10.856;2022-10-17T08:34:06;3.47;;;1.50;;
50205;SDS011;36098;48.390;10.856;2022-10-17T08:36:31;2.40;;;1.40;;
50205;SDS011;36098;48.390;10.856;2022-10-17T08:38:57;3.63;;;1.50;;
50205;SDS011;36098;48.390;10.856;2022-10-17T08:47:14;1.67;;;1.30;;
50205;SDS011;36098;48.390;10.856;2022-10-17T08:52:15;2.65;;;1.60;;
50205;SDS011;36098;48.390;10.856;2022-10-17T08:54:52;2.35;;;1.52;;
50205;SDS011;36098;48.390;10.856;2022-10-17T08:57:17;2.72;;;1.45;;
50205;SDS011;36098;48.390;10.856;2022-10-17T08:59:43;1.67;;;1.30;;
50205;SDS011;36098;48.390;10.856;2022-10-17T09:08:05;2.10;;;1.40;;
50205;SDS011;36098;48.390;10.856;2022-10-17T09:19:22;2.15;;;1.30;;
50205;SDS011;36098;48.390;10.856;2022-10-17T09:21:50;2.33;;;1.55;;
50205;SDS011;36098;48.390;10.856;2022-10-17T09:24:25;5.07;;;1.60;;
50205;SDS011;36098;48.390;10.856;2022-10-17T09:26:51;2.15;;;1.23;;
50205;SDS011;36098;48.390;10.856;2022-10-17T09:29:20;1.73;;;1.33;;
50205;SDS011;36098;48.390;10.856;2022-10-17T09:31:49;2.53;;;1.52;;
50205;SDS011;36098;48.390;10.856;2022-10-17T09:34:20;2.22;;;1.70;;
50205;SDS011;36098;48.390;10.856;2022-10-17T09:36:46;2.78;;;1.92;;
50205;SDS011;36098;48.390;10.856;2022-10-17T09:39:18;2.28;;;1.27;;
50205;SDS011;36098;48.390;10.856;2022-10-17T09:41:52;4.00;;;1.55;;
50205;SDS011;36098;48.390;10.856;2022-10-17T09:44:21;3.33;;;1.27;;
50205;SDS011;36098;48.390;10.856;2022-10-17T09:47:07;2.55;;;1.55;;
50205;SDS011;36098;48.390;10.856;2022-10-17T09:49:41;4.30;;;1.27;;
50205;SDS011;36098;48.390;10.856;2022-10-17T09:52:16;3.85;;;1.30;;
50205;SDS011;36098;48.390;10.856;2022-10-17T09:54:51;1.98;;;1.48;;
50205;SDS011;36098;48.390;10.856;2022-10-17T09:57:29;6.30;;;1.65;;
50205;SDS011;36098;48.390;10.856;2022-10-17T10:00:29;1.80;;;1.38;;
50205;SDS011;36098;48.390;10.856;2022-10-17T10:03:09;2.28;;;1.52;;
50205;SDS011;36098;48.390;10.856;2022-10-17T10:05:35;2.22;;;1.33;;
50205;SDS011;36098;48.390;10.856;2022-10-17T10:08:02;4.30;;;1.30;;
50205;SDS011;36098;48.390;10.856;2022-10-17T10:10:29;2.67;;;1.58;;
50205;SDS011;36098;48.390;10.856;2022-10-17T10:13:05;1.60;;;1.20;;
50205;SDS011;36098;48.390;10.856;2022-10-17T10:15:42;2.00;;;1.40;;
50205;SDS011;36098;48.390;10.856;2022-10-17T10:20:49;3.83;;;1.45;;
50205;SDS011;36098;48.390;10.856;2022-10-17T10:23:28;2.30;;;1.40;;
50205;SDS011;36098;48.390;10.856;2022-10-17T10:25:55;1.42;;;1.25;;
50205;SDS011;36098;48.390;10.856;2022-10-17T10:28:24;2.47;;;1.50;;
50205;SDS011;36098;48.390;10.856;2022-10-17T10:30:52;3.95;;;1.25;;
50205;SDS011;36098;48.390;10.856;2022-10-17T10:33:20;3.35;;;1.33;;
50205;SDS011;36098;48.390;10.856;2022-10-17T10:36:05;1.73;;;1.10;;
50205;SDS011;36098;48.390;10.856;2022-10-17T10:38:32;2.60;;;1.50;;
50205;SDS011;36098;48.390;10.856;2022-10-17T10:41:02;2.13;;;1.50;;
50205;SDS011;36098;48.390;10.856;2022-10-17T10:46:15;2.60;;;1.40;;
50205;SDS011;36098;48.390;10.856;2022-10-17T10:48:57;3.90;;;1.70;;
50205;SDS011;36098;48.390;10.856;2022-10-17T10:52:00;6.43;;;1.77;;
50205;SDS011;36098;48.390;10.856;2022-10-17T10:54:20;2.50;;;1.52;;
50205;SDS011;36098;48.390;10.856;2022-10-17T10:56:52;2.15;;;1.52;;
50205;SDS011;36098;48.390;10.856;2022-10-17T10:59:37;5.55;;;1.55;;
50205;SDS011;36098;48.390;10.856;2022-10-17T11:02:16;7.00;;;1.40;;
50205;SDS011;36098;48.390;10.856;2022-10-17T11:13:14;2.05;;;1.35;;
50205;SDS011;36098;48.390;10.856;2022-10-17T11:15:48;3.17;;;1.38;;
50205;SDS011;36098;48.390;10.856;2022-10-17T11:18:23;4.00;;;1.58;;
50205;SDS011;36098;48.390;10.856;2022-10-17T11:20:55;3.00;;;1.60;;
50205;SDS011;36098;48.390;10.856;2022-10-17T11:26:04;5.13;;;1.73;;
50205;SDS011;36098;48.390;10.856;2022-10-17T11:28:34;7.57;;;1.67;;
50205;SDS011;36098;48.390;10.856;2022-10-17T11:31:04;3.05;;;1.52;;
50205;SDS011;36098;48.390;10.856;2022-10-17T11:36:04;2.78;;;1.40;;
50205;SDS011;36098;48.390;10.856;2022-10-17T11:41:02;4.63;;;2.05;;
50205;SDS011;36098;48.390;10.856;2022-10-17T11:43:34;4.25;;;1.73;;
50205;SDS011;36098;48.390;10.856;2022-10-17T11:46:11;5.50;;;1.50;;
50205;SDS011;36098;48.390;10.856;2022-10-17T11:48:54;5.18;;;1.60;;
50205;SDS011;36098;48.390;10.856;2022-10-17T11:53:53;5.50;;;1.67;;
50205;SDS011;36098;48.390;10.856;2022-10-17T11:56:25;6.20;;;1.63;;
50205;SDS011;36098;48.390;10.856;2022-10-17T12:02:10;3.15;;;1.67;;
50205;SDS011;36098;48.390;10.856;2022-10-17T12:04:54;4.13;;;1.63;;
50205;SDS011;36098;48.390;10.856;2022-10-17T12:15:52;2.15;;;1.40;;
50205;SDS011;36098;48.390;10.856;2022-10-17T12:18:17;4.18;;;1.60;;
50205;SDS011;36098;48.390;10.856;2022-10-17T12:20:43;2.47;;;1.40;;
50205;SDS011;36098;48.390;10.856;2022-10-17T12:25:58;3.38;;;1.52;;
50205;SDS011;36098;48.390;10.856;2022-10-17T12:31:08;1.60;;;1.40;;
50205;SDS011;36098;48.390;10.856;2022-10-17T12:38:49;5.55;;;1.67;;
50205;SDS011;36098;48.390;10.856;2022-10-17T12:54:57;3.00;;;1.90;;
50205;SDS011;36098;48.390;10.856;2022-10-17T13:03:05;2.63;;;1.35;;
50205;SDS011;36098;48.390;10.856;2022-10-17T13:05:42;3.45;;;1.63;;
50205;SDS011;36098;48.390;10.856;2022-10-17T13:08:14;3.00;;;1.60;;
50205;SDS011;36098;48.390;10.856;2022-10-17T13:10:44;3.13;;;1.52;;
50205;SDS011;36098;48.390;10.856;2022-10-17T13:16:05;6.95;;;1.63;;
50205;SDS011;36098;48.390;10.856;2022-10-17T13:18:30;1.90;;;1.55;;
50205;SDS011;36098;48.390;10.856;2022-10-17T13:20:57;5.20;;;1.70;;
50205;SDS011;36098;48.390;10.856;2022-10-17T13:23:34;4.28;;;1.42;;
50205;SDS011;36098;48.390;10.856;2022-10-17T13:26:02;3.53;;;2.00;;
50205;SDS011;36098;48.390;10.856;2022-10-17T13:28:30;3.85;;;1.52;;
50205;SDS011;36098;48.390;10.856;2022-10-17T13:30:55;2.00;;;1.42;;
50205;SDS011;36098;48.390;10.856;2022-10-17T13:33:34;5.32;;;1.60;;
50205;SDS011;36098;48.390;10.856;2022-10-17T13:36:05;6.50;;;2.00;;
50205;SDS011;36098;48.390;10.856;2022-10-17T13:38:36;2.70;;;1.38;;
50205;SDS011;36098;48.390;10.856;2022-10-17T13:41:02;1.90;;;1.60;;
50205;SDS011;36098;48.390;10.856;2022-10-17T13:43:28;2.60;;;1.50;;
50205;SDS011;36098;48.390;10.856;2022-10-17T13:45:56;3.28;;;1.92;;
50205;SDS011;36098;48.390;10.856;2022-10-17T13:48:28;6.25;;;1.73;;
50205;SDS011;36098;48.390;10.856;2022-10-17T13:50:56;3.63;;;1.67;;
50205;SDS011;36098;48.390;10.856;2022-10-17T13:55:59;4.22;;;1.63;;
50205;SDS011;36098;48.390;10.856;2022-10-17T13:58:40;3.45;;;1.60;;
50205;SDS011;36098;48.390;10.856;2022-10-17T14:01:10;7.30;;;1.40;;
50205;SDS011;36098;48.390;10.856;2022-10-17T14:03:37;3.45;;;1.70;;
50205;SDS011;36098;48.390;10.856;2022-10-17T14:08:38;9.02;;;1.70;;
50205;SDS011;36098;48.390;10.856;2022-10-17T14:11:14;4.27;;;1.70;;
50205;SDS011;36098;48.390;10.856;2022-10-17T14:14:18;4.95;;;2.00;;
50205;SDS011;36098;48.390;10.856;2022-10-17T14:16:46;5.20;;;1.45;;
50205;SDS011;36098;48.390;10.856;2022-10-17T14:19:22;4.47;;;1.65;;
50205;SDS011;36098;48.390;10.856;2022-10-17T14:21:53;5.40;;;1.77;;
50205;SDS011;36098;48.390;10.856;2022-10-17T14:26:47;5.45;;;1.80;;
50205;SDS011;36098;48.390;10.856;2022-10-17T14:29:19;4.65;;;1.83;;
50205;SDS011;36098;48.390;10.856;2022-10-17T14:32:00;5.50;;;1.85;;
50205;SDS011;36098;48.390;10.856;2022-10-17T14:34:30;2.47;;;1.40;;
50205;SDS011;36098;48.390;10.856;2022-10-17T14:36:58;2.92;;;1.50;;
50205;SDS011;36098;48.390;10.856;2022-10-17T14:39:24;5.55;;;1.55;;
50205;SDS011;36098;48.390;10.856;2022-10-17T14:41:51;3.80;;;1.42;;
50205;SDS011;36098;48.390;10.856;2022-10-17T14:44:18;4.68;;;1.50;;
50205;SDS011;36098;48.390;10.856;2022-10-17T14:46:44;3.67;;;1.50;;
50205;SDS011;36098;48.390;10.856;2022-10-17T14:50:00;3.83;;;1.30;;
50205;SDS011;36098;48.390;10.856;2022-10-17T14:54:41;7.10;;;1.67;;
50205;SDS011;36098;48.390;10.856;2022-10-17T14:57:28;7.32;;;1.40;;
50205;SDS011;36098;48.390;10.856;2022-10-17T14:59:56;10.60;;;1.90;;
50205;SDS011;36098;48.390;10.856;2022-10-17T15:02:26;5.30;;;2.10;;
50205;SDS011;36098;48.390;10.856;2022-10-17T15:04:52;3.70;;;2.08;;
50205;SDS011;36098;48.390;10.856;2022-10-17T15:07:18;6.65;;;1.73;;
50205;SDS011;36098;48.390;10.856;2022-10-17T15:09:46;3.90;;;1.63;;
50205;SDS011;36098;48.390;10.856;2022-10-17T15:12:19;3.38;;;1.48;;
50205;SDS011;36098;48.390;10.856;2022-10-17T15:14:46;5.53;;;1.60;;
50205;SDS011;36098;48.390;10.856;2022-10-17T15:17:15;9.13;;;1.80;;
50205;SDS011;36098;48.390;10.856;2022-10-17T15:19:43;4.70;;;1.67;;
50205;SDS011;36098;48.390;10.856;2022-10-17T15:22:09;4.63;;;1.73;;
50205;SDS011;36098;48.390;10.856;2022-10-17T15:24:35;5.65;;;1.70;;
50205;SDS011;36098;48.390;10.856;2022-10-17T15:27:00;7.82;;;2.35;;
50205;SDS011;36098;48.390;10.856;2022-10-17T15:29:26;6.55;;;2.03;;
50205;SDS011;36098;48.390;10.856;2022-10-17T15:31:52;14.13;;;2.35;;
50205;SDS011;36098;48.390;10.856;2022-10-17T15:34:17;5.40;;;2.30;;
50205;SDS011;36098;48.390;10.856;2022-10-17T15:36:47;4.43;;;1.90;;
50205;SDS011;36098;48.390;10.856;2022-10-17T15:39:14;3.22;;;1.70;;
50205;SDS011;36098;48.390;10.856;2022-10-17T15:41:39;4.60;;;2.05;;
50205;SDS011;36098;48.390;10.856;2022-10-17T15:44:04;5.78;;;2.05;;
50205;SDS011;36098;48.390;10.856;2022-10-17T15:46:31;4.80;;;2.05;;
50205;SDS011;36098;48.390;10.856;2022-10-17T15:49:02;5.47;;;1.80;;
50205;SDS011;36098;48.390;10.856;2022-10-17T15:51:31;5.82;;;1.92;;
50205;SDS011;36098;48.390;10.856;2022-10-17T15:53:56;7.50;;;2.15;;
50205;SDS011;36098;48.390;10.856;2022-10-17T15:56:25;4.28;;;2.03;;
50205;SDS011;36098;48.390;10.856;2022-10-17T15:58:54;17.55;;;2.10;;
50205;SDS011;36098;48.390;10.856;2022-10-17T16:01:24;17.30;;;2.85;;
50205;SDS011;36098;48.390;10.856;2022-10-17T16:03:51;5.50;;;2.08;;
50205;SDS011;36098;48.390;10.856;2022-10-17T16:06:17;5.03;;;2.03;;
50205;SDS011;36098;48.390;10.856;2022-10-17T16:08:44;7.53;;;2.47;;
50205;SDS011;36098;48.390;10.856;2022-10-17T16:11:16;3.78;;;1.80;;
50205;SDS011;36098;48.390;10.856;2022-10-17T16:13:48;17.63;;;7.38;;
50205;SDS011;36098;48.390;10.856;2022-10-17T16:16:16;21.27;;;8.33;;
50205;SDS011;36098;48.390;10.856;2022-10-17T16:18:41;18.77;;;7.30;;
50205;SDS011;36098;48.390;10.856;2022-10-17T16:21:08;41.60;;;16.52;;
50205;SDS011;36098;48.390;10.856;2022-10-17T16:23:36;44.10;;;16.05;;
50205;SDS011;36098;48.390;10.856;2022-10-17T16:26:01;37.20;;;14.80;;
50205;SDS011;36098;48.390;10.856;2022-10-17T16:28:26;34.55;;;13.20;;
50205;SDS011;36098;48.390;10.856;2022-10-17T16:30:52;19.83;;;9.25;;
50205;SDS011;36098;48.390;10.856;2022-10-17T16:33:17;21.50;;;8.30;;
50205;SDS011;36098;48.390;10.856;2022-10-17T16:35:42;20.35;;;8.35;;
50205;SDS011;36098;48.390;10.856;2022-10-17T16:39:30;24.85;;;8.20;;
50205;SDS011;36098;48.390;10.856;2022-10-17T16:41:55;23.83;;;7.18;;
50205;SDS011;36098;48.390;10.856;2022-10-17T16:44:20;28.35;;;8.18;;
50205;SDS011;36098;48.390;10.856;2022-10-17T16:46:46;24.63;;;6.93;;
50205;SDS011;36098;48.390;10.856;2022-10-17T16:49:11;17.42;;;6.40;;
50205;SDS011;36098;48.390;10.856;2022-10-17T16:51:37;22.27;;;6.53;;
50205;SDS011;36098;48.390;10.856;2022-10-17T16:54:02;26.83;;;10.20;;